Time;durP1;ratioP1;P1;durP2;ratioP2;P2;SDS_P1;SDS_P2;PMS_P1;PMS_P2;Temp;Humidity;BMP_temperature;BMP_pressure;BME280_temperature;BME280_humidity;BME280_pressure;Samples;Min_cycle;Max_cycle;Signal;HPM_P1;HPM_P2
2022/12/24 00:06:56;;;;;;;3.27;0.90;;;12.20;99.90;;;;;;21095967;28;20450;-82
2022/12/24 00:16:57;;;;;;;3.93;0.90;;;12.20;99.90;;;;;;21128564;28;20466;-81
2022/12/24 00:26:58;;;;;;;3.33;0.93;;;12.10;99.90;;;;;;21128120;28;20028;-81
2022/12/24 00:36:58;;;;;;;3.37;0.90;;;12.10;99.90;;;;;;21133990;28;20024;-81
2022/12/24 00:46:59;;;;;;;3.10;0.80;;;12.20;99.90;;;;;;21073222;28;20047;-80
2022/12/24 00:57:00;;;;;;;4.33;0.83;;;12.10;99.90;;;;;;21054169;28;20041;-80
2022/12/24 01:07:01;;;;;;;3.93;1.23;;;12.10;99.90;;;;;;21051611;28;20048;-81
2022/12/24 01:17:02;;;;;;;3.77;1.00;;;11.90;99.90;;;;;;21015510;28;20036;-79
2022/12/24 01:27:03;;;;;;;;;;;11.90;99.90;;;;;;21049668;28;20057;-81
2022/12/24 01:37:04;;;;;;;6.10;0.90;;;11.80;99.90;;;;;;21112499;28;19985;-82
2022/12/24 01:47:13;;;;;;;3.97;1.10;;;11.70;99.90;;;;;;21127226;28;20032;-79
2022/12/24 01:57:30;;;;;;;2.20;1.10;;;11.70;99.90;;;;;;21119229;28;20063;-79
2022/12/24 02:07:31;;;;;;;9.60;3.17;;;11.70;99.90;;;;;;21119734;28;20062;-79
2022/12/24 02:17:42;;;;;;;6.68;1.60;;;11.60;99.90;;;;;;21123129;28;20115;-81
2022/12/24 02:28:06;;;;;;;19.43;5.17;;;11.50;99.90;;;;;;21110649;28;20032;-80
2022/12/24 02:38:13;;;;;;;8.63;3.95;;;11.50;99.90;;;;;;21087122;28;20040;-79
2022/12/24 02:48:16;;;;;;;14.98;5.13;;;11.50;99.90;;;;;;21113350;28;20028;-81
2022/12/24 02:59:06;;;;;;;15.25;3.88;;;11.40;99.90;;;;;;21121415;28;20032;-78
2022/12/24 03:09:38;;;;;;;4.45;1.38;;;11.30;99.90;;;;;;21067575;28;20471;-78
2022/12/24 03:19:39;;;;;;;7.30;1.63;;;11.30;99.90;;;;;;21103143;28;20042;-79
2022/12/24 03:29:40;;;;;;;6.17;1.30;;;11.30;99.90;;;;;;21136950;28;20028;-81
2022/12/24 03:39:41;;;;;;;4.85;1.58;;;11.30;99.90;;;;;;21133083;28;20032;-81
2022/12/24 03:49:42;;;;;;;7.27;1.37;;;11.20;99.90;;;;;;21069765;22;20139;-78
2022/12/24 03:59:43;;;;;;;9.70;1.73;;;11.20;99.90;;;;;;20965032;28;20395;-80
2022/12/24 04:09:44;;;;;;;10.33;1.87;;;11.10;99.90;;;;;;21024389;28;20067;-80
2022/12/24 04:19:44;;;;;;;12.67;1.70;;;11.00;99.90;;;;;;21026189;28;20028;-81
2022/12/24 04:29:45;;;;;;;8.53;1.03;;;10.90;99.90;;;;;;21027201;28;20056;-80
2022/12/24 04:39:46;;;;;;;13.53;1.87;;;10.90;99.90;;;;;;21023595;28;20043;-80
2022/12/24 04:49:47;;;;;;;9.93;1.40;;;10.90;99.90;;;;;;21021363;28;20040;-80
2022/12/24 04:59:47;;;;;;;9.50;1.53;;;10.90;99.90;;;;;;21002770;28;20399;-79
2022/12/24 05:09:48;;;;;;;12.53;1.93;;;10.80;99.90;;;;;;21020226;28;20035;-80
2022/12/24 05:19:49;;;;;;;8.30;2.20;;;10.80;99.90;;;;;;21019372;28;20028;-79
2022/12/24 05:29:50;;;;;;;9.77;1.67;;;10.80;99.90;;;;;;21014144;28;20093;-80
2022/12/24 05:39:51;;;;;;;13.03;3.40;;;10.80;99.90;;;;;;21015818;28;20593;-80
2022/12/24 05:49:51;;;;;;;14.80;1.50;;;10.70;99.90;;;;;;21013892;28;20032;-79
2022/12/24 05:59:52;;;;;;;7.47;1.40;;;10.80;99.90;;;;;;21013577;28;20440;-78
2022/12/24 06:09:53;;;;;;;9.43;1.83;;;10.80;99.90;;;;;;21009264;28;20036;-78
2022/12/24 06:19:54;;;;;;;8.27;2.07;;;10.70;99.90;;;;;;21012556;28;20491;-79
2022/12/24 06:29:54;;;;;;;7.67;1.60;;;10.50;99.90;;;;;;21014808;28;20054;-80
2022/12/24 06:39:55;;;;;;;11.30;1.70;;;10.40;99.90;;;;;;21016694;28;20045;-78
2022/12/24 06:49:56;;;;;;;16.67;2.33;;;10.30;99.90;;;;;;21016286;28;20092;-77
2022/12/24 06:59:59;;;;;;;12.33;1.77;;;10.30;99.90;;;;;;21025168;28;20028;-78
2022/12/24 07:10:00;;;;;;;8.65;1.35;;;10.30;99.90;;;;;;21028690;28;20029;-79
2022/12/24 07:20:01;;;;;;;8.83;1.63;;;10.40;99.90;;;;;;20951954;28;20043;-78
2022/12/24 07:30:03;;;;;;;14.40;2.27;;;10.30;99.90;;;;;;20992502;28;20160;-79
2022/12/24 07:40:08;;;;;;;10.32;1.85;;;10.20;99.90;;;;;;21115638;28;20039;-78
2022/12/24 07:50:09;;;;;;;4.85;1.65;;;10.20;99.90;;;;;;21116347;28;20036;-78
2022/12/24 08:00:10;;;;;;;6.40;1.90;;;10.20;99.90;;;;;;21113856;28;20028;-80
2022/12/24 08:10:14;;;;;;;9.23;1.27;;;10.10;99.90;;;;;;21109133;28;20028;-79
2022/12/24 08:20:16;;;;;;;4.00;1.73;;;10.10;99.90;;;;;;21110127;28;20024;-80
2022/12/24 08:30:17;;;;;;;1.88;0.93;;;10.10;99.90;;;;;;21063996;28;20058;-80
2022/12/24 08:40:17;;;;;;;8.53;1.00;;;10.20;99.90;;;;;;20982959;28;20603;-79
2022/12/24 08:50:18;;;;;;;4.20;1.30;;;10.30;99.90;;;;;;20968850;28;20062;-77
2022/12/24 09:00:19;;;;;;;3.00;1.17;;;10.40;99.90;;;;;;20960892;28;20104;-78
2022/12/24 09:10:20;;;;;;;10.20;1.73;;;10.40;99.90;;;;;;20969373;28;20029;-80
2022/12/24 09:20:21;;;;;;;8.25;3.33;;;10.50;99.90;;;;;;20989065;28;20024;-79
2022/12/24 09:30:22;;;;;;;5.93;1.70;;;10.50;99.90;;;;;;20994921;28;20081;-78
2022/12/24 09:40:34;;;;;;;11.43;2.60;;;10.50;99.90;;;;;;20976842;28;20017;-79
2022/12/24 09:50:44;;;;;;;;;;;10.50;99.90;;;;;;21003791;22;20252;-77
2022/12/24 10:00:46;;;;;;;4.25;1.50;;;10.60;99.90;;;;;;21008686;28;19915;-77
2022/12/24 10:10:59;;;;;;;9.52;2.17;;;10.70;99.90;;;;;;21015926;28;20564;-78
2022/12/24 10:21:13;;;;;;;2.67;1.00;;;10.70;99.90;;;;;;21028679;28;20024;-77
2022/12/24 10:31:14;;;;;;;5.93;1.50;;;10.70;99.90;;;;;;21031329;28;20050;-77
2022/12/24 10:41:16;;;;;;;11.43;3.60;;;10.60;99.90;;;;;;21033630;28;20050;-78
2022/12/24 10:51:24;;;;;;;4.20;2.38;;;10.80;99.90;;;;;;21011030;28;20375;-78
2022/12/24 11:01:45;;;;;;;3.22;1.00;;;10.90;99.90;;;;;;21009599;28;20550;-77
2022/12/24 11:11:46;;;;;;;1.42;0.90;;;10.80;99.90;;;;;;21009794;28;20077;-77
2022/12/24 11:21:47;;;;;;;1.55;1.05;;;10.80;99.90;;;;;;21053665;28;20051;-78
2022/12/24 11:31:51;;;;;;;3.97;1.33;;;10.90;99.90;;;;;;21006920;28;20111;-77
2022/12/24 11:41:53;;;;;;;2.90;1.10;;;11.00;99.90;;;;;;20990077;28;20394;-78
2022/12/24 11:52:09;;;;;;;1.25;0.85;;;11.00;99.90;;;;;;21005564;28;20398;-78
2022/12/24 12:02:32;;;;;;;3.60;0.70;;;11.20;99.90;;;;;;21003944;28;20045;-77
2022/12/24 12:12:39;;;;;;;3.28;0.85;;;11.30;99.90;;;;;;20986274;28;20036;-80
2022/12/24 12:23:02;;;;;;;2.50;1.10;;;11.40;99.90;;;;;;20988254;28;20067;-78
2022/12/24 12:33:27;;;;;;;1.70;0.80;;;11.30;99.90;;;;;;20998284;28;20032;-78
2022/12/24 12:44:03;;;;;;;1.67;0.90;;;11.40;99.90;;;;;;21044502;28;20028;-78
2022/12/24 12:54:07;;;;;;;1.40;0.75;;;11.50;99.90;;;;;;21023748;28;20035;-78
2022/12/24 13:04:22;;;;;;;2.58;0.90;;;11.20;99.90;;;;;;21031513;28;20028;-77
2022/12/24 13:14:38;;;;;;;2.28;1.00;;;11.10;99.90;;;;;;21053326;28;20035;-78
2022/12/24 13:24:39;;;;;;;2.22;0.70;;;11.10;99.90;;;;;;21049921;28;20043;-78
2022/12/24 13:34:48;;;;;;;4.00;1.33;;;10.90;99.90;;;;;;21022716;28;20037;-78
2022/12/24 13:45:27;;;;;;;1.05;0.75;;;10.70;99.90;;;;;;21035640;28;20494;-78
2022/12/24 13:55:28;;;;;;;3.80;1.30;;;10.60;99.90;;;;;;20994488;28;20044;-78
2022/12/24 14:05:38;;;;;;;2.55;1.30;;;10.30;99.90;;;;;;20994218;28;20635;-78
2022/12/24 14:16:01;;;;;;;3.88;1.85;;;10.30;99.90;;;;;;20995712;28;20082;-77
2022/12/24 14:26:03;;;;;;;2.35;1.13;;;10.30;99.90;;;;;;21002139;28;20044;-77
2022/12/24 14:36:05;;;;;;;2.25;1.33;;;10.30;99.90;;;;;;20992990;28;20040;-77
2022/12/24 14:46:33;;;;;;;1.50;0.88;;;10.20;99.90;;;;;;20990784;28;20544;-77
2022/12/24 14:56:34;;;;;;;1.00;0.90;;;9.90;99.90;;;;;;21008492;28;20127;-77
2022/12/24 15:06:38;;;;;;;3.00;1.00;;;9.90;99.90;;;;;;21070221;28;20465;-77
2022/12/24 15:16:40;;;;;;;3.38;0.73;;;9.80;99.90;;;;;;21041039;28;20036;-77
2022/12/24 15:26:43;;;;;;;3.47;1.85;;;9.80;99.90;;;;;;21050348;28;20094;-78
2022/12/24 15:36:44;;;;;;;2.25;1.38;;;9.80;99.90;;;;;;20966733;28;20032;-78
2022/12/24 15:46:45;;;;;;;2.47;1.20;;;9.60;99.90;;;;;;21053540;28;20039;-77
2022/12/24 15:56:47;;;;;;;6.23;1.47;;;9.60;99.90;;;;;;21219707;22;20047;-79
2022/12/24 16:07:01;;;;;;;4.43;2.45;;;9.20;99.90;;;;;;21233345;27;20020;-81
2022/12/24 16:17:10;;;;;;;3.85;2.40;;;9.20;99.90;;;;;;21130992;28;20146;-81
2022/12/24 16:27:12;;;;;;;8.75;4.10;;;9.00;99.90;;;;;;21177524;28;20059;-81
2022/12/24 16:37:13;;;;;;;7.25;3.58;;;8.80;99.90;;;;;;21188514;28;20036;-79
2022/12/24 16:47:25;;;;;;;6.80;3.30;;;8.80;99.90;;;;;;21185424;28;20069;-81
2022/12/24 16:57:26;;;;;;;4.20;2.45;;;8.80;99.90;;;;;;21160943;28;20066;-82
2022/12/24 17:07:27;;;;;;;3.38;2.40;;;8.70;99.90;;;;;;21171088;28;20449;-82
2022/12/24 17:17:29;;;;;;;6.20;2.77;;;8.70;99.90;;;;;;21169918;28;20047;-81
2022/12/24 17:27:30;;;;;;;7.55;3.63;;;8.70;99.90;;;;;;21165972;28;20383;-82
2022/12/24 17:37:32;;;;;;;6.50;4.55;;;8.60;99.90;;;;;;21150272;28;20043;-80
2022/12/24 17:47:32;;;;;;;8.17;4.97;;;8.60;99.90;;;;;;21158059;28;20397;-81
2022/12/24 17:57:33;;;;;;;7.90;4.60;;;8.50;99.90;;;;;;21157334;28;20036;-81
2022/12/24 18:07:35;;;;;;;6.55;4.47;;;8.50;99.90;;;;;;21146543;28;20043;-80
2022/12/24 18:17:35;;;;;;;11.10;5.45;;;8.50;99.90;;;;;;21125146;28;20047;-79
2022/12/24 18:27:36;;;;;;;10.50;5.93;;;8.60;99.90;;;;;;21085702;28;20497;-80
2022/12/24 18:37:37;;;;;;;12.37;5.60;;;8.50;99.90;;;;;;21141353;28;20055;-78
2022/12/24 18:47:38;;;;;;;10.43;5.33;;;8.40;99.90;;;;;;21168325;28;20289;-77
2022/12/24 18:57:39;;;;;;;12.70;6.10;;;8.40;99.90;;;;;;21169824;27;20054;-79
2022/12/24 19:07:40;;;;;;;13.13;6.50;;;8.40;99.90;;;;;;21143153;28;20035;-80
2022/12/24 19:17:40;;;;;;;;;;;8.40;99.90;;;;;;21175098;27;20042;-79
2022/12/24 19:27:41;;;;;;;14.10;7.93;;;8.30;99.90;;;;;;21197036;27;19911;-78
2022/12/24 19:37:42;;;;;;;16.70;8.80;;;8.40;99.90;;;;;;21216054;27;20292;-79
2022/12/24 19:47:43;;;;;;;16.97;9.03;;;8.30;99.90;;;;;;21269699;27;20492;-78
2022/12/24 19:57:44;;;;;;;19.80;9.77;;;8.40;99.90;;;;;;21198222;28;20040;-78
2022/12/24 20:07:44;;;;;;;19.57;10.07;;;8.30;99.90;;;;;;21122537;28;20028;-80
2022/12/24 20:17:50;;;;;;;18.93;9.37;;;8.30;99.90;;;;;;21188551;27;20035;-81
2022/12/24 20:27:52;;;;;;;24.85;9.73;;;8.30;99.90;;;;;;21192572;28;20039;-80
2022/12/24 20:37:52;;;;;;;;;;;8.30;99.90;;;;;;21171261;28;20039;-79
2022/12/24 20:47:53;;;;;;;20.63;10.50;;;8.30;99.90;;;;;;21178865;27;19912;-80
2022/12/24 20:57:54;;;;;;;22.97;11.43;;;8.30;99.90;;;;;;21149002;28;20054;-76
2022/12/24 21:07:55;;;;;;;21.07;12.17;;;8.30;99.90;;;;;;21146553;27;20024;-79
2022/12/24 21:17:57;;;;;;;23.50;13.57;;;8.20;99.90;;;;;;21150393;27;20027;-76
2022/12/24 21:27:58;;;;;;;32.15;15.07;;;8.20;99.90;;;;;;21143972;28;20031;-78
2022/12/24 21:37:59;;;;;;;28.15;14.77;;;8.20;99.90;;;;;;21126716;28;20096;-80
2022/12/24 21:50:53;;;;;;;32.33;14.67;;;8.20;99.90;;;;;;21124052;28;20078;-80
2022/12/24 21:58:20;;;;;;;30.52;15.55;;;8.20;99.90;;;;;;21132732;22;20064;-81
2022/12/24 22:18:41;;;;;;;25.55;13.45;;;8.20;99.90;;;;;;21117144;28;20119;-82
2022/12/24 22:28:42;;;;;;;35.43;14.93;;;8.20;99.90;;;;;;21101252;28;20047;-83
2022/12/24 22:38:43;;;;;;;32.60;15.35;;;8.10;99.90;;;;;;21080828;28;20119;-84
2022/12/24 22:48:45;;;;;;;36.22;17.35;;;8.10;99.90;;;;;;21178110;28;20125;-82
2022/12/24 22:58:46;;;;;;;;;;;8.10;99.90;;;;;;21219382;28;20084;-84
2022/12/24 23:08:47;;;;;;;29.38;15.73;;;8.10;99.90;;;;;;21107816;28;19955;-85
2022/12/24 23:18:47;;;;;;;32.60;16.73;;;8.10;99.90;;;;;;21073450;28;20028;-84
2022/12/24 23:28:49;;;;;;;30.10;16.00;;;8.10;99.90;;;;;;21080421;28;20028;-83
2022/12/24 23:38:52;;;;;;;35.40;15.95;;;8.10;99.90;;;;;;21134168;28;20156;-85
2022/12/24 23:48:53;;;;;;;24.73;15.15;;;8.10;99.90;;;;;;21131441;28;20039;-83
2022/12/24 23:58:55;;;;;;;31.30;16.00;;;8.10;99.90;;;;;;21147254;28;20038;-84
